Time;durP1;ratioP1;P1;durP2;ratioP2;P2;SDS_P1;SDS_P2;PMS_P1;PMS_P2;Temp;Humidity;BMP_temperature;BMP_pressure;BME280_temperature;BME280_humidity;BME280_pressure;Samples;Min_cycle;Max_cycle;Signal;HPM_P1;HPM_P2
2022/07/02 00:02:06;;;;;;;5.13;3.03;;;;;;;14.07;72.83;102073.69;5049066;28;20222;-78
2022/07/02 00:04:33;;;;;;;5.03;2.72;;;;;;;14.04;72.68;102069.38;5054166;28;20031;-78
2022/07/02 00:06:59;;;;;;;3.80;3.10;;;;;;;14.01;72.40;102072.03;5057597;28;20039;-78
2022/07/02 00:09:27;;;;;;;3.85;2.88;;;;;;;13.97;72.17;102075.63;5056062;28;20041;-78
2022/07/02 00:11:57;;;;;;;6.43;2.90;;;;;;;13.92;73.35;102072.25;5053807;28;21815;-78
2022/07/02 00:14:23;;;;;;;3.97;2.90;;;;;;;13.88;73.31;102076.69;5056497;28;20059;-78
2022/07/02 00:16:48;;;;;;;4.68;3.10;;;;;;;13.85;73.38;102075.84;5056115;28;20036;-78
2022/07/02 00:19:14;;;;;;;4.72;3.47;;;;;;;13.84;73.62;102076.75;5051627;28;20118;-78
2022/07/02 00:21:40;;;;;;;7.53;3.13;;;;;;;13.81;72.84;102075.94;5050729;28;20032;-78
2022/07/02 00:24:09;;;;;;;5.47;3.00;;;;;;;13.79;72.67;102080.34;5054582;28;20017;-77
2022/07/02 00:26:39;;;;;;;5.88;3.47;;;;;;;13.75;72.53;102076.06;5055622;28;20024;-78
2022/07/02 00:29:15;;;;;;;6.00;3.33;;;;;;;13.71;72.29;102078.75;5054666;28;20084;-78
2022/07/02 00:31:41;;;;;;;4.10;3.28;;;;;;;13.67;72.72;102080.56;5055356;28;20025;-77
2022/07/02 00:34:06;;;;;;;7.07;3.10;;;;;;;13.61;72.55;102078.91;5059565;28;20461;-78
2022/07/02 00:36:32;;;;;;;5.85;3.38;;;;;;;13.59;72.68;102085.94;5054062;28;20020;-78
2022/07/02 00:38:58;;;;;;;5.30;2.90;;;;;;;13.56;72.83;102079.91;5052637;28;20033;-78
2022/07/02 00:41:26;;;;;;;4.65;3.20;;;;;;;13.50;73.64;102078.25;5052447;28;20064;-78
2022/07/02 00:43:52;;;;;;;6.07;3.38;;;;;;;13.47;73.98;102076.56;5051799;28;20029;-78
2022/07/02 00:46:19;;;;;;;5.93;3.00;;;;;;;13.47;73.41;102076.56;5053664;28;20033;-77
2022/07/02 00:48:44;;;;;;;4.32;3.25;;;;;;;13.44;73.27;102079.25;5051299;28;20028;-78
2022/07/02 00:51:10;;;;;;;4.65;3.25;;;;;;;13.41;73.09;102079.28;5059772;28;20038;-78
2022/07/02 00:53:35;;;;;;;7.18;3.28;;;;;;;13.38;73.33;102081.06;5056945;28;20029;-78
2022/07/02 00:56:01;;;;;;;6.13;3.25;;;;;;;13.33;73.05;102079.41;5052424;28;20028;-78
2022/07/02 00:58:30;;;;;;;4.05;2.90;;;;;;;13.30;73.19;102068.13;5051154;28;20033;-78
2022/07/02 01:00:56;;;;;;;5.40;3.20;;;;;;;13.27;73.10;102074.25;5052210;28;20395;-78
2022/07/02 01:03:21;;;;;;;5.20;3.10;;;;;;;13.24;73.18;102074.31;5053954;28;20020;-78
2022/07/02 01:05:48;;;;;;;5.70;3.30;;;;;;;13.20;73.19;102072.66;5054767;28;20151;-78
2022/07/02 01:11:02;;;;;;;5.40;2.90;;;;;;;13.10;74.08;102064.09;5055162;28;20058;-78
2022/07/02 01:13:31;;;;;;;4.72;2.60;;;;;;;13.09;74.15;102058.91;5051402;28;20111;-78
2022/07/02 01:15:57;;;;;;;3.55;2.67;;;;;;;13.06;74.13;102065.88;5052120;28;20078;-78
2022/07/02 01:18:22;;;;;;;5.38;2.78;;;;;;;13.06;74.15;102059.81;5052333;28;20372;-78
2022/07/02 01:20:47;;;;;;;4.35;2.60;;;;;;;13.03;74.16;102052.91;5052229;28;20060;-78
2022/07/02 01:23:13;;;;;;;7.43;3.08;;;;;;;12.98;74.27;102057.34;5051518;28;20040;-78
2022/07/02 01:25:38;;;;;;;5.85;2.83;;;;;;;12.95;74.62;102056.53;5053050;28;20028;-78
2022/07/02 01:28:03;;;;;;;4.53;2.95;;;;;;;12.96;75.06;102060.88;5050025;28;20025;-78
2022/07/02 01:30:29;;;;;;;4.75;2.72;;;;;;;12.94;74.78;102060.03;5052632;28;20995;-78
2022/07/02 01:32:54;;;;;;;3.72;2.70;;;;;;;12.96;74.13;102058.25;5057380;28;20033;-78
2022/07/02 01:35:20;;;;;;;4.28;2.90;;;;;;;12.94;73.89;102060.03;5055400;28;20082;-78
2022/07/02 01:37:45;;;;;;;7.25;3.00;;;;;;;12.93;73.83;102061.75;5061620;28;20115;-78
2022/07/02 01:40:11;;;;;;;4.90;2.88;;;;;;;12.92;73.91;102061.78;5054149;28;20052;-78
2022/07/02 01:42:36;;;;;;;4.93;2.83;;;;;;;12.89;73.88;102067.94;5054349;28;20032;-78
2022/07/02 01:45:02;;;;;;;4.80;3.17;;;;;;;12.86;73.94;102063.59;5059169;28;20048;-78
2022/07/02 01:47:28;;;;;;;4.22;2.97;;;;;;;12.83;73.69;102066.25;5054686;28;20021;-78
2022/07/02 01:49:53;;;;;;;4.90;2.65;;;;;;;12.80;74.11;102058.50;5058605;28;20851;-78
2022/07/02 01:52:18;;;;;;;6.70;3.20;;;;;;;12.78;73.72;102060.28;5059515;28;20025;-78
2022/07/02 01:54:46;;;;;;;4.88;3.05;;;;;;;12.77;74.39;102052.44;5061625;28;20028;-78
2022/07/02 01:57:13;;;;;;;7.20;3.38;;;;;;;12.74;75.13;102058.59;5063056;28;20036;-77
2022/07/02 01:59:38;;;;;;;7.20;3.28;;;;;;;12.72;74.33;102060.34;5055719;28;20056;-78
2022/07/02 02:02:05;;;;;;;7.00;3.30;;;;;;;12.71;75.42;102056.00;5056021;28;20094;-78
2022/07/02 02:04:30;;;;;;;7.50;3.10;;;;;;;12.70;75.87;102052.56;5055095;28;20541;-77
2022/07/02 02:06:56;;;;;;;10.85;3.40;;;;;;;12.71;76.11;102045.56;5055498;28;20020;-78
2022/07/02 02:09:21;;;;;;;7.15;3.40;;;;;;;12.72;76.10;102052.53;5059100;28;20408;-78
2022/07/02 02:11:47;;;;;;;6.82;3.15;;;;;;;12.75;75.77;102060.31;5058995;28;20036;-78
2022/07/02 02:14:12;;;;;;;6.10;3.20;;;;;;;12.75;76.06;102049.88;5055198;28;20234;-78
2022/07/02 02:16:38;;;;;;;6.13;3.30;;;;;;;12.76;75.77;102056.81;5056763;28;20028;-78
2022/07/02 02:19:04;;;;;;;9.02;3.50;;;;;;;12.75;75.48;102058.53;5055483;28;20048;-78
2022/07/02 02:21:29;;;;;;;5.85;3.45;;;;;;;12.77;75.61;102058.53;5060217;28;20025;-78
2022/07/02 02:23:56;;;;;;;7.38;3.22;;;;;;;12.77;75.47;102066.38;5059652;28;20017;-78
2022/07/02 02:26:21;;;;;;;5.85;3.10;;;;;;;12.79;75.59;102053.28;5059589;28;20036;-78
2022/07/02 02:28:47;;;;;;;6.85;3.33;;;;;;;12.79;74.82;102059.38;5058703;28;20029;-78
2022/07/02 02:31:12;;;;;;;6.53;3.10;;;;;;;12.79;74.51;102061.13;5055093;28;20024;-78
2022/07/02 02:33:37;;;;;;;5.40;3.22;;;;;;;12.76;74.63;102062.03;5058092;28;20110;-77
2022/07/02 02:36:03;;;;;;;6.38;3.03;;;;;;;12.73;75.09;102059.47;5060543;28;20036;-78
2022/07/02 02:38:28;;;;;;;5.25;2.90;;;;;;;12.74;74.99;102058.59;5056510;28;20058;-77
2022/07/02 02:40:54;;;;;;;6.55;3.10;;;;;;;12.75;74.68;102060.31;5061989;28;20039;-78
2022/07/02 02:43:19;;;;;;;4.47;2.70;;;;;;;12.73;74.89;102056.84;5057653;28;20031;-78
2022/07/02 02:45:45;;;;;;;5.55;2.65;;;;;;;12.71;75.09;102059.50;5058674;28;20036;-78
2022/07/02 02:48:10;;;;;;;5.63;2.80;;;;;;;12.73;74.95;102059.47;5057255;28;20107;-78
2022/07/02 02:50:35;;;;;;;6.63;2.65;;;;;;;12.74;75.08;102058.59;5058544;28;20020;-78
2022/07/02 02:53:01;;;;;;;5.03;2.63;;;;;;;12.75;74.64;102060.31;5065211;28;20024;-78
2022/07/02 02:55:27;;;;;;;4.05;2.42;;;;;;;12.76;74.56;102062.03;5057248;28;20108;-78
2022/07/02 02:57:53;;;;;;;6.55;2.50;;;;;;;12.75;74.14;102057.69;5057677;28;20031;-78
2022/07/02 03:00:18;;;;;;;5.13;2.92;;;;;;;12.72;74.15;102070.78;5059193;28;20426;-78
2022/07/02 03:02:43;;;;;;;5.20;3.05;;;;;;;12.71;74.69;102069.06;5053959;28;20031;-78
2022/07/02 03:05:09;;;;;;;6.20;2.58;;;;;;;12.72;74.37;102070.78;5055393;28;20432;-78
2022/07/02 03:07:34;;;;;;;5.18;2.70;;;;;;;12.73;74.16;102067.31;5053667;28;20032;-78
2022/07/02 03:09:59;;;;;;;5.57;2.80;;;;;;;12.73;74.05;102067.31;5055828;28;20496;-78
2022/07/02 03:12:25;;;;;;;5.85;2.70;;;;;;;12.72;74.19;102070.78;5058486;28;20043;-78
2022/07/02 03:14:51;;;;;;;4.68;2.58;;;;;;;12.69;73.90;102073.44;5058383;28;20669;-78
2022/07/02 03:17:16;;;;;;;5.60;2.65;;;;;;;12.70;74.18;102075.19;5059555;28;20056;-78
2022/07/02 03:19:41;;;;;;;5.72;2.72;;;;;;;12.69;73.99;102066.50;5060148;28;20166;-78
2022/07/02 03:22:06;;;;;;;5.00;2.72;;;;;;;12.67;73.87;102078.69;5056810;28;20029;-78
2022/07/02 03:24:32;;;;;;;6.80;2.38;;;;;;;12.64;73.91;102080.50;5055655;28;20044;-78
2022/07/02 03:26:57;;;;;;;6.65;2.53;;;;;;;12.59;74.13;102086.66;5054580;28;20033;-78
2022/07/02 03:29:22;;;;;;;5.60;2.53;;;;;;;12.55;74.05;102092.78;5056213;28;20075;-78
2022/07/02 03:31:48;;;;;;;6.20;2.72;;;;;;;12.51;74.10;102096.31;5057249;28;20036;-78
2022/07/02 03:34:13;;;;;;;7.07;2.53;;;;;;;12.49;73.80;102095.47;5055345;28;20100;-78
2022/07/02 03:36:38;;;;;;;4.88;2.65;;;;;;;12.46;74.03;102090.31;5057287;28;20127;-78
2022/07/02 03:39:04;;;;;;;5.00;2.55;;;;;;;12.44;74.25;102092.09;5055969;28;20491;-78
2022/07/02 03:41:29;;;;;;;6.93;2.97;;;;;;;12.41;74.31;102092.97;5058839;28;20047;-78
2022/07/02 03:43:54;;;;;;;5.75;2.70;;;;;;;12.40;74.51;102095.63;5057261;28;20484;-78
2022/07/02 03:46:19;;;;;;;5.82;2.70;;;;;;;12.39;74.56;102094.72;5054530;28;20180;-78
2022/07/02 03:48:45;;;;;;;5.03;2.70;;;;;;;12.38;75.30;102098.22;5052350;28;20032;-78
2022/07/02 03:51:10;;;;;;;6.07;2.75;;;;;;;12.40;75.47;102096.47;5052802;28;20152;-78
2022/07/02 03:53:35;;;;;;;4.57;2.53;;;;;;;12.45;75.71;102094.66;5055790;28;20987;-78
2022/07/02 03:56:01;;;;;;;6.68;2.65;;;;;;;12.48;75.73;102093.75;5054085;28;20492;-78
2022/07/02 03:58:27;;;;;;;4.65;2.60;;;;;;;12.53;76.01;102094.56;5051788;28;20034;-77
2022/07/02 04:00:52;;;;;;;4.00;2.40;;;;;;;12.55;75.17;102095.41;5055986;28;20553;-78
2022/07/02 04:03:17;;;;;;;5.70;2.97;;;;;;;12.54;74.89;102098.03;5054952;28;20032;-78
2022/07/02 04:05:43;;;;;;;4.68;2.80;;;;;;;12.52;75.06;102100.66;5056199;28;20090;-78
2022/07/02 04:08:08;;;;;;;4.38;2.67;;;;;;;12.52;74.85;102105.88;5056102;28;20043;-78
2022/07/02 04:10:33;;;;;;;4.85;2.72;;;;;;;12.51;75.94;102104.16;5053095;28;20079;-78
2022/07/02 04:12:58;;;;;;;5.93;2.72;;;;;;;12.54;75.67;102109.34;5058431;28;20055;-78
2022/07/02 04:15:24;;;;;;;4.63;2.90;;;;;;;12.55;75.39;102107.59;5054803;28;20644;-78
2022/07/02 04:17:49;;;;;;;4.07;2.80;;;;;;;12.57;75.74;102104.06;5053985;28;20376;-78
2022/07/02 04:20:14;;;;;;;5.75;2.88;;;;;;;12.59;75.56;102110.16;5057293;28;20079;-78
2022/07/02 04:22:40;;;;;;;6.57;2.80;;;;;;;12.59;75.98;102107.53;5058714;28;20165;-77
2022/07/02 04:25:05;;;;;;;5.25;2.47;;;;;;;12.60;75.76;102104.03;5057439;28;20021;-78
2022/07/02 04:27:31;;;;;;;4.72;3.00;;;;;;;12.61;75.99;102107.50;5055726;28;20356;-78
2022/07/02 04:29:56;;;;;;;4.65;2.88;;;;;;;12.59;76.00;102107.53;5055448;28;20024;-77
2022/07/02 04:32:21;;;;;;;4.90;2.75;;;;;;;12.59;76.02;102102.31;5060003;28;20048;-78
2022/07/02 04:34:47;;;;;;;4.78;2.97;;;;;;;12.60;76.45;102108.38;5055362;28;20173;-78
2022/07/02 04:37:12;;;;;;;6.95;3.30;;;;;;;12.62;76.16;102101.41;5058270;28;20032;-77
2022/07/02 04:39:37;;;;;;;4.82;2.65;;;;;;;12.65;76.45;102100.47;5058708;28;20044;-78
2022/07/02 04:42:03;;;;;;;4.55;2.72;;;;;;;12.69;76.72;102110.00;5057302;28;20020;-77
2022/07/02 04:44:28;;;;;;;4.53;2.75;;;;;;;12.72;76.88;102109.97;5055686;28;20017;-78
2022/07/02 04:46:55;;;;;;;5.78;3.28;;;;;;;12.75;76.76;102102.94;5062168;28;20040;-77
2022/07/02 04:49:20;;;;;;;7.93;3.22;;;;;;;12.82;76.53;102102.84;5057232;28;20023;-78
2022/07/02 04:51:46;;;;;;;5.43;3.15;;;;;;;12.87;77.00;102094.06;5054179;28;20032;-77
2022/07/02 04:54:11;;;;;;;3.50;2.85;;;;;;;12.91;76.85;102100.09;5055833;28;20024;-78
2022/07/02 04:56:36;;;;;;;5.93;3.05;;;;;;;12.94;76.89;102101.81;5055442;28;20468;-78
2022/07/02 04:59:02;;;;;;;5.05;2.80;;;;;;;12.98;77.05;102098.28;5055521;28;20028;-78
2022/07/02 05:01:28;;;;;;;5.05;3.10;;;;;;;13.02;76.27;102105.16;5054881;28;20248;-77
2022/07/02 05:03:53;;;;;;;4.43;2.97;;;;;;;13.09;76.40;102104.19;5055655;28;20526;-78
2022/07/02 05:06:19;;;;;;;4.03;2.83;;;;;;;13.16;76.27;102107.56;5054025;28;20021;-78
2022/07/02 05:08:44;;;;;;;5.35;3.03;;;;;;;13.24;76.40;102104.81;5054648;28;20097;-77
2022/07/02 05:11:10;;;;;;;4.65;2.83;;;;;;;13.31;76.10;102107.31;5056136;28;20024;-78
2022/07/02 05:13:35;;;;;;;4.80;3.10;;;;;;;13.38;75.44;102102.84;5054305;28;20383;-78
2022/07/02 05:16:00;;;;;;;6.18;3.08;;;;;;;13.46;75.81;102108.84;5055168;28;20032;-78
2022/07/02 05:18:26;;;;;;;4.97;3.10;;;;;;;13.54;74.50;102107.81;5052685;28;20028;-78
2022/07/02 05:20:51;;;;;;;6.13;3.30;;;;;;;13.60;74.10;102105.09;5055998;28;20043;-77
2022/07/02 05:23:16;;;;;;;4.32;2.95;;;;;;;13.63;73.15;102102.44;5057269;28;20597;-78
2022/07/02 05:25:41;;;;;;;5.28;3.00;;;;;;;13.67;73.33;102104.09;5055270;28;20020;-78
2022/07/02 05:28:07;;;;;;;5.65;3.30;;;;;;;13.74;74.05;102107.47;5052545;28;20027;-78
2022/07/02 05:30:32;;;;;;;4.03;3.20;;;;;;;13.79;73.28;102106.50;5054714;28;20052;-78
2022/07/02 05:32:58;;;;;;;5.28;3.45;;;;;;;13.83;73.54;102103.81;5057273;28;20020;-78
2022/07/02 05:35:23;;;;;;;6.15;3.70;;;;;;;13.89;72.81;102108.91;5055332;28;20033;-77
2022/07/02 05:37:49;;;;;;;6.88;3.30;;;;;;;13.94;73.65;102112.31;5054146;28;20108;-77
2022/07/02 05:40:14;;;;;;;5.97;3.95;;;;;;;13.98;73.01;102111.38;5056651;28;20506;-78
2022/07/02 05:42:39;;;;;;;9.70;3.10;;;;;;;14.03;72.89;102119.13;5058224;28;20033;-78
2022/07/02 05:45:05;;;;;;;4.93;3.10;;;;;;;14.07;71.93;102111.19;5049511;28;20035;-78
2022/07/02 05:47:30;;;;;;;6.75;2.90;;;;;;;14.13;71.35;102120.66;5058778;28;20082;-78
2022/07/02 05:49:56;;;;;;;6.15;3.30;;;;;;;14.19;71.77;102124.91;5054014;28;20028;-78
2022/07/02 05:52:21;;;;;;;6.82;2.97;;;;;;;14.23;71.53;102126.56;5056673;28;20029;-78
2022/07/02 05:54:47;;;;;;;7.75;3.05;;;;;;;14.28;71.72;102122.09;5056682;28;20032;-78
2022/07/02 05:57:12;;;;;;;5.30;3.22;;;;;;;14.34;72.33;102127.22;5052713;28;20439;-78
2022/07/02 05:59:38;;;;;;;5.35;3.00;;;;;;;14.39;72.33;102122.72;5054175;28;20064;-78
2022/07/02 06:02:04;;;;;;;5.30;2.60;;;;;;;14.44;70.51;102124.41;5051955;28;20116;-78
2022/07/02 06:04:29;;;;;;;4.75;2.63;;;;;;;14.51;71.50;102128.63;5052887;28;20027;-78
2022/07/02 06:09:39;;;;;;;3.53;2.50;;;;;;;14.61;70.89;102118.78;5055633;28;20245;-78
2022/07/02 06:12:04;;;;;;;4.38;2.28;;;;;;;14.67;68.68;102118.66;5053408;28;20197;-78
2022/07/02 06:14:30;;;;;;;6.03;2.50;;;;;;;14.70;70.97;102116.84;5052754;28;20025;-78
2022/07/02 06:16:55;;;;;;;5.28;2.40;;;;;;;14.76;70.41;102117.63;5052705;28;20439;-78
2022/07/02 06:19:20;;;;;;;4.15;2.35;;;;;;;14.82;70.81;102120.09;5053119;28;20066;-78
2022/07/02 06:21:45;;;;;;;3.83;2.17;;;;;;;14.88;69.83;102117.31;5055621;28;20793;-78
2022/07/02 06:24:11;;;;;;;3.80;1.98;;;;;;;14.93;70.34;102128.56;5055592;28;20021;-78
2022/07/02 06:26:37;;;;;;;2.85;1.85;;;;;;;14.99;68.78;102130.19;5055732;28;20047;-78
2022/07/02 06:29:02;;;;;;;3.72;1.85;;;;;;;15.02;67.19;102128.38;5054927;28;20033;-78
2022/07/02 06:31:27;;;;;;;3.20;1.60;;;;;;;15.08;66.04;102136.97;5053785;28;20028;-78
2022/07/02 06:33:53;;;;;;;3.88;1.70;;;;;;;15.14;67.79;102134.19;5053196;28;20028;-78
2022/07/02 06:36:21;;;;;;;4.07;1.50;;;;;;;15.20;65.85;102130.56;5049047;28;20029;-78
2022/07/02 06:38:47;;;;;;;4.20;1.63;;;;;;;15.26;66.48;102143.53;5051908;28;20020;-78
2022/07/02 06:43:56;;;;;;;2.75;1.52;;;;;;;15.36;64.20;102147.63;5057627;28;20075;-78
2022/07/02 06:46:21;;;;;;;3.03;1.40;;;;;;;15.44;66.16;102142.19;5057209;28;20096;-78
2022/07/02 06:48:46;;;;;;;3.95;1.35;;;;;;;15.52;65.58;102148.13;5054364;28;20098;-78
2022/07/02 06:51:12;;;;;;;1.90;1.38;;;;;;;15.60;64.64;102140.91;5052703;28;20056;-78
2022/07/02 06:53:37;;;;;;;3.97;1.40;;;;;;;15.71;65.19;102139.78;5056852;28;20020;-78
2022/07/02 06:56:02;;;;;;;2.67;1.40;;;;;;;15.79;64.53;102129.94;5056873;28;20033;-78
2022/07/02 06:58:28;;;;;;;2.97;1.40;;;;;;;15.87;63.70;102141.13;5057577;28;20033;-78
2022/07/02 07:00:53;;;;;;;2.75;1.60;;;;;;;15.96;63.94;102137.38;5055685;28;20033;-78
2022/07/02 07:03:18;;;;;;;3.22;1.42;;;;;;;15.99;62.56;102128.56;5056865;28;20032;-78
2022/07/02 07:05:46;;;;;;;2.70;1.40;;;;;;;16.05;64.82;102133.66;5054119;28;20025;-78
2022/07/02 07:08:13;;;;;;;2.67;1.30;;;;;;;16.08;61.32;102138.78;5057506;28;20048;-78
2022/07/02 07:10:38;;;;;;;2.65;1.17;;;;;;;16.12;61.49;102140.44;5054122;28;20044;-78
2022/07/02 07:13:03;;;;;;;2.90;1.40;;;;;;;16.17;61.59;102129.78;5064197;28;20105;-78
2022/07/02 07:15:28;;;;;;;3.10;1.30;;;;;;;16.21;62.19;102136.69;5061407;28;20017;-78
2022/07/02 07:17:54;;;;;;;2.20;1.17;;;;;;;16.24;63.18;102134.81;5057268;28;20082;-78
2022/07/02 07:20:26;;;;;;;2.28;1.00;;;;;;;16.30;61.81;102140.81;5054740;28;20126;-78
2022/07/02 07:22:52;;;;;;;1.42;1.00;;;;;;;16.34;61.21;102139.81;5054676;28;20036;-78
2022/07/02 07:25:17;;;;;;;1.40;0.80;;;;;;;16.37;61.27;102137.94;5053140;28;20085;-78
2022/07/02 07:27:43;;;;;;;1.95;0.93;;;;;;;16.42;61.74;102143.06;5053267;28;20147;-78
2022/07/02 07:30:08;;;;;;;1.10;0.80;;;;;;;16.45;60.75;102142.97;5050115;28;20098;-78
2022/07/02 07:32:34;;;;;;;4.60;1.00;;;;;;;16.48;59.40;102136.78;5049935;28;20067;-78
2022/07/02 07:34:59;;;;;;;1.30;0.70;;;;;;;16.51;59.78;102132.28;5052542;28;20115;-78
2022/07/02 07:37:24;;;;;;;1.23;0.70;;;;;;;16.56;59.33;102133.94;5054749;28;20029;-78
2022/07/02 07:39:50;;;;;;;2.17;0.70;;;;;;;16.59;57.97;102136.44;5052288;28;20115;-77
2022/07/02 07:42:15;;;;;;;1.40;0.70;;;;;;;16.63;62.06;102132.81;5051243;28;20422;-78
2022/07/02 07:44:40;;;;;;;1.48;0.57;;;;;;;16.68;59.72;102133.56;5057216;28;20610;-78
2022/07/02 07:47:05;;;;;;;1.40;0.60;;;;;;;16.73;59.22;102131.66;5053915;28;20036;-78
2022/07/02 07:49:31;;;;;;;1.85;0.60;;;;;;;16.77;58.86;102133.25;5050913;28;20036;-78
2022/07/02 07:51:57;;;;;;;1.80;0.75;;;;;;;16.80;59.33;102141.03;5048443;28;20028;-78
2022/07/02 07:54:22;;;;;;;2.67;0.82;;;;;;;16.86;59.30;102139.97;5050136;28;20040;-78
2022/07/02 07:56:47;;;;;;;2.53;0.80;;;;;;;16.90;58.72;102140.78;5048768;28;20028;-78
2022/07/02 07:59:12;;;;;;;1.67;0.88;;;;;;;16.94;59.97;102137.13;5053026;28;20388;-78
2022/07/02 08:01:38;;;;;;;2.13;1.00;;;;;;;16.98;60.56;102139.66;5055696;28;20153;-78
2022/07/02 08:04:03;;;;;;;2.13;0.90;;;;;;;17.03;60.48;102131.63;5058288;28;20051;-78
2022/07/02 08:06:28;;;;;;;3.95;1.10;;;;;;;17.08;60.14;102127.03;5059043;28;20036;-78
2022/07/02 08:08:54;;;;;;;2.30;1.30;;;;;;;17.14;60.32;102132.09;5060121;28;20048;-78
2022/07/02 08:11:19;;;;;;;4.05;1.10;;;;;;;17.16;56.52;102123.31;5058416;28;20060;-78
2022/07/02 08:13:44;;;;;;;2.10;1.00;;;;;;;17.19;58.30;102118.81;5054079;28;20043;-78
2022/07/02 08:16:09;;;;;;;3.85;1.05;;;;;;;17.23;58.67;102124.84;5058545;28;20066;-78
2022/07/02 08:18:35;;;;;;;2.88;0.98;;;;;;;17.27;56.99;102115.91;5057127;28;20479;-78
2022/07/02 08:21:01;;;;;;;2.92;0.85;;;;;;;17.32;59.05;102124.53;5059984;28;20071;-78
2022/07/02 08:23:26;;;;;;;1.77;0.70;;;;;;;17.37;56.34;102129.63;5055278;28;20032;-78
2022/07/02 08:25:54;;;;;;;2.83;0.98;;;;;;;17.40;58.13;102117.25;5059894;28;20056;-78
2022/07/02 08:28:20;;;;;;;1.67;0.88;;;;;;;17.44;56.34;102116.19;5058164;28;20043;-78
2022/07/02 08:30:46;;;;;;;2.88;0.80;;;;;;;17.50;59.15;102122.19;5059517;28;20028;-78
2022/07/02 08:33:12;;;;;;;3.28;1.08;;;;;;;17.54;55.85;102121.16;5057540;28;20170;-78
2022/07/02 08:35:38;;;;;;;2.22;0.90;;;;;;;17.58;59.07;102114.88;5057814;28;20078;-78
2022/07/02 08:38:06;;;;;;;2.55;1.05;;;;;;;17.64;56.21;102114.66;5058072;28;20494;-78
2022/07/02 08:40:31;;;;;;;2.95;0.90;;;;;;;17.69;58.28;102110.09;5057148;28;20068;-78
2022/07/02 08:43:00;;;;;;;2.58;1.00;;;;;;;17.72;58.28;102102.09;5058472;28;20079;-78
2022/07/02 08:45:30;;;;;;;1.88;0.90;;;;;;;17.77;57.97;102103.69;5061410;28;20029;-78
2022/07/02 08:47:55;;;;;;;2.63;1.00;;;;;;;17.80;56.22;102103.56;5062986;28;20036;-78
2022/07/02 08:50:23;;;;;;;2.78;1.00;;;;;;;17.83;57.45;102111.38;5062536;28;20037;-78
2022/07/02 08:52:51;;;;;;;3.67;1.10;;;;;;;17.87;57.75;102107.72;5056877;28;20033;-78
2022/07/02 08:55:18;;;;;;;2.25;0.90;;;;;;;17.90;59.53;102102.34;5063153;28;20413;-78
2022/07/02 08:57:45;;;;;;;1.77;0.80;;;;;;;17.94;59.15;102096.03;5064136;28;20024;-78
2022/07/02 09:00:11;;;;;;;1.00;0.70;;;;;;;17.98;56.45;102100.31;5062337;28;20028;-78
2022/07/02 09:02:37;;;;;;;2.45;0.90;;;;;;;18.04;59.29;102102.72;5059876;28;20491;-78
2022/07/02 09:05:03;;;;;;;2.65;0.90;;;;;;;18.09;57.02;102099.91;5057911;28;20046;-79
2022/07/02 09:07:29;;;;;;;1.83;0.85;;;;;;;18.13;56.77;102098.88;5059487;28;20028;-78
2022/07/02 09:09:55;;;;;;;2.40;1.00;;;;;;;18.17;56.73;102102.25;5057100;28;20040;-79
2022/07/02 09:12:23;;;;;;;3.00;1.00;;;;;;;18.23;55.94;102095.91;5061193;28;20064;-79
2022/07/02 09:14:48;;;;;;;1.73;0.70;;;;;;;18.27;54.52;102093.09;5076069;28;20020;-79
2022/07/02 09:17:14;;;;;;;1.73;0.82;;;;;;;18.32;56.14;102087.66;5064611;28;20472;-79
2022/07/02 09:19:40;;;;;;;2.80;0.82;;;;;;;18.39;57.16;102091.75;5060162;28;20052;-79
2022/07/02 09:22:08;;;;;;;1.55;0.90;;;;;;;18.42;55.09;102091.63;5063748;28;20036;-79
2022/07/02 09:24:39;;;;;;;1.95;0.70;;;;;;;18.45;54.90;102083.63;5062631;28;20028;-79
2022/07/02 09:27:12;;;;;;;3.35;0.98;;;;;;;18.47;54.98;102081.78;5063733;28;20056;-79
2022/07/02 09:29:47;;;;;;;2.50;0.90;;;;;;;18.54;57.16;102071.84;5063292;28;20046;-79
2022/07/02 09:32:14;;;;;;;1.67;0.68;;;;;;;18.60;55.99;102071.63;5061151;28;20141;-77
2022/07/02 09:34:50;;;;;;;1.90;0.90;;;;;;;18.65;55.68;102080.19;5062542;28;20121;-78
2022/07/02 09:37:19;;;;;;;2.22;0.80;;;;;;;18.71;56.94;102072.97;5058766;28;20028;-78
2022/07/02 09:39:46;;;;;;;1.15;0.80;;;;;;;18.75;54.77;102067.50;5062658;28;20059;-79
2022/07/02 09:42:22;;;;;;;2.33;1.05;;;;;;;18.79;54.55;102060.31;5061677;28;20444;-79
2022/07/02 09:44:47;;;;;;;1.73;0.80;;;;;;;18.85;56.20;102060.06;5061900;28;20029;-78
2022/07/02 09:47:13;;;;;;;2.03;0.90;;;;;;;18.92;57.33;102051.00;5052834;28;20029;-78
2022/07/02 09:49:49;;;;;;;1.70;0.93;;;;;;;19.01;57.15;102051.53;5051751;28;20051;-76
2022/07/02 09:52:16;;;;;;;2.10;0.90;;;;;;;19.08;54.97;102045.09;5058290;28;20036;-86
2022/07/02 09:54:42;;;;;;;3.78;1.00;;;;;;;19.16;54.94;102050.88;5068979;28;20039;-79
2022/07/02 09:57:09;;;;;;;3.35;0.90;;;;;;;19.22;53.14;102044.50;5062213;28;20471;-79
2022/07/02 09:59:36;;;;;;;1.50;0.82;;;;;;;19.32;55.83;102047.59;5060717;28;20155;-78
2022/07/02 10:02:01;;;;;;;2.33;0.98;;;;;;;19.38;53.06;102044.69;5062454;28;20047;-78
2022/07/02 10:04:31;;;;;;;1.75;0.90;;;;;;;19.45;52.70;102045.28;5063589;28;20040;-78
2022/07/02 10:06:59;;;;;;;2.92;0.80;;;;;;;19.50;51.22;102038.88;5063243;28;20036;-78
2022/07/02 10:09:25;;;;;;;2.03;0.90;;;;;;;19.52;50.44;102037.03;5060352;28;20813;-78
2022/07/02 10:11:50;;;;;;;3.67;1.02;;;;;;;19.56;51.62;102043.00;5066100;28;20056;-78
2022/07/02 10:14:23;;;;;;;2.55;0.90;;;;;;;19.55;49.60;102039.53;5065148;28;20025;-78
2022/07/02 10:16:50;;;;;;;2.22;0.80;;;;;;;19.51;49.26;102035.31;5064483;28;20033;-78
2022/07/02 10:19:17;;;;;;;5.03;1.10;;;;;;;19.46;49.80;102032.03;5065014;28;20152;-78
2022/07/02 10:21:42;;;;;;;2.72;0.77;;;;;;;19.42;51.26;102028.66;5066286;28;20033;-78
2022/07/02 10:24:10;;;;;;;1.63;0.80;;;;;;;19.43;50.22;102026.88;5066191;28;20031;-78
2022/07/02 10:26:36;;;;;;;3.20;0.90;;;;;;;19.44;50.77;102027.72;5064435;28;20028;-78
2022/07/02 10:29:03;;;;;;;2.00;1.00;;;;;;;19.46;51.60;102026.75;5066334;28;20032;-78
2022/07/02 10:31:44;;;;;;;3.60;0.80;;;;;;;19.47;51.68;102025.78;5064611;28;20036;-78
2022/07/02 10:34:42;;;;;;;0.88;0.70;;;;;;;19.50;52.17;102028.31;5065503;28;20060;-78
2022/07/02 10:37:07;;;;;;;1.20;0.60;;;;;;;19.52;49.20;102026.47;5065561;28;20028;-78
2022/07/02 10:39:40;;;;;;;1.90;0.85;;;;;;;19.60;52.25;102018.19;5061428;28;20020;-78
2022/07/02 10:42:05;;;;;;;2.00;0.90;;;;;;;19.74;49.71;102008.78;5065534;28;20133;-78
2022/07/02 10:44:41;;;;;;;2.90;0.80;;;;;;;19.93;51.64;102009.69;5063515;28;20587;-79
2022/07/02 10:47:26;;;;;;;3.47;0.80;;;;;;;20.06;50.12;102015.25;5066004;28;20032;-79
2022/07/02 10:49:58;;;;;;;1.73;0.60;;;;;;;20.10;49.11;102019.47;5062907;28;20059;-78
2022/07/02 10:52:52;;;;;;;2.70;0.63;;;;;;;20.21;50.71;102023.38;5061199;28;20399;-78
2022/07/02 10:55:30;;;;;;;26.42;4.78;;;;;;;20.34;49.05;102005.16;5064962;28;20032;-78
2022/07/02 10:58:01;;;;;;;2.70;1.00;;;;;;;20.38;48.53;102012.00;5063859;28;20089;-78
2022/07/02 11:00:38;;;;;;;1.58;0.60;;;;;;;20.37;45.60;102012.94;5060367;28;20109;-78
2022/07/02 11:03:24;;;;;;;5.40;0.68;;;;;;;20.39;47.87;102006.63;5062573;28;20103;-78
2022/07/02 11:05:57;;;;;;;3.17;0.50;;;;;;;20.45;47.17;102005.47;5056863;28;20024;-78
2022/07/02 11:08:40;;;;;;;2.42;0.70;;;;;;;20.45;47.77;102003.69;5061502;28;20748;-78
2022/07/02 11:11:06;;;;;;;0.80;0.50;;;;;;;20.41;45.99;102004.78;5062341;28;20036;-78
2022/07/02 11:13:41;;;;;;;1.73;0.52;;;;;;;20.37;45.80;102003.19;5065821;28;20330;-78
2022/07/02 11:16:41;;;;;;;1.10;0.35;;;;;;;20.44;48.42;101995.81;5061367;28;20060;-78
2022/07/02 11:19:28;;;;;;;1.35;0.60;;;;;;;20.53;48.74;101992.75;5054953;28;20052;-78
2022/07/02 11:21:57;;;;;;;2.17;0.60;;;;;;;20.52;45.87;101995.44;5064409;28;20047;-78
2022/07/02 11:24:24;;;;;;;0.88;0.45;;;;;;;20.54;47.33;101993.59;5060649;28;20027;-78
2022/07/02 11:26:51;;;;;;;1.63;0.45;;;;;;;20.65;46.44;102000.97;5058221;28;20081;-78
2022/07/02 11:29:16;;;;;;;3.75;0.60;;;;;;;20.75;47.18;101989.91;5056283;28;20032;-83
2022/07/02 11:31:45;;;;;;;1.10;0.50;;;;;;;20.79;43.56;101987.13;5066547;28;20036;-80